sensor_id;sensor_type;location;lat;lon;timestamp;pressure;altitude;pressure_sealevel;temperature;humidity
13934;BME280;7039;52.168;9.866;2023-05-20T00:00:59;101518.69;;;13.75;63.90
13934;BME280;7039;52.168;9.866;2023-05-20T00:03:28;101515.72;;;13.83;63.92
13934;BME280;7039;52.168;9.866;2023-05-20T00:05:56;101517.56;;;13.81;64.01
13934;BME280;7039;52.168;9.866;2023-05-20T00:08:39;101501.19;;;13.76;64.03
13934;BME280;7039;52.168;9.866;2023-05-20T00:11:06;101507.09;;;13.81;64.12
13934;BME280;7039;52.168;9.866;2023-05-20T00:13:34;101505.84;;;13.69;64.66
13934;BME280;7039;52.168;9.866;2023-05-20T00:16:02;101512.19;;;13.65;64.47
13934;BME280;7039;52.168;9.866;2023-05-20T00:18:31;101515.84;;;13.80;64.14
13934;BME280;7039;52.168;9.866;2023-05-20T00:20:59;101513.44;;;13.75;64.58
13934;BME280;7039;52.168;9.866;2023-05-20T00:23:26;101514.50;;;13.71;64.42
13934;BME280;7039;52.168;9.866;2023-05-20T00:25:53;101513.31;;;13.60;65.09
13934;BME280;7039;52.168;9.866;2023-05-20T00:28:21;101503.41;;;13.47;65.36
13934;BME280;7039;52.168;9.866;2023-05-20T00:30:49;101506.06;;;13.46;65.39
13934;BME280;7039;52.168;9.866;2023-05-20T00:33:18;101507.66;;;13.50;65.34
13934;BME280;7039;52.168;9.866;2023-05-20T00:35:48;101505.38;;;13.42;65.48
13934;BME280;7039;52.168;9.866;2023-05-20T00:38:19;101500.41;;;13.36;65.62
13934;BME280;7039;52.168;9.866;2023-05-20T00:40:49;101491.72;;;13.35;65.79
13934;BME280;7039;52.168;9.866;2023-05-20T00:43:16;101496.41;;;13.27;65.74
13934;BME280;7039;52.168;9.866;2023-05-20T00:45:44;101498.22;;;13.46;65.60
13934;BME280;7039;52.168;9.866;2023-05-20T00:48:11;101489.66;;;13.42;65.48
13934;BME280;7039;52.168;9.866;2023-05-20T00:50:38;101497.00;;;13.53;65.09
13934;BME280;7039;52.168;9.866;2023-05-20T00:53:07;101490.91;;;13.33;65.72
13934;BME280;7039;52.168;9.866;2023-05-20T00:55:34;101485.41;;;13.19;65.61
13934;BME280;7039;52.168;9.866;2023-05-20T00:58:00;101486.53;;;13.34;65.37
13934;BME280;7039;52.168;9.866;2023-05-20T01:00:27;101492.75;;;13.31;65.32
13934;BME280;7039;52.168;9.866;2023-05-20T01:02:54;101494.13;;;13.40;65.13
13934;BME280;7039;52.168;9.866;2023-05-20T01:05:21;101499.84;;;13.48;65.18
13934;BME280;7039;52.168;9.866;2023-05-20T01:07:47;101488.94;;;13.39;65.07
13934;BME280;7039;52.168;9.866;2023-05-20T01:10:15;101499.78;;;13.50;65.07
13934;BME280;7039;52.168;9.866;2023-05-20T01:12:45;101494.59;;;13.48;65.16
13934;BME280;7039;52.168;9.866;2023-05-20T01:15:14;101489.66;;;13.42;65.36
13934;BME280;7039;52.168;9.866;2023-05-20T01:17:43;101492.34;;;13.41;65.76
13934;BME280;7039;52.168;9.866;2023-05-20T01:20:12;101489.78;;;13.39;65.75
13934;BME280;7039;52.168;9.866;2023-05-20T01:22:47;101494.13;;;13.40;65.83
13934;BME280;7039;52.168;9.866;2023-05-20T01:25:13;101491.56;;;13.18;66.08
13934;BME280;7039;52.168;9.866;2023-05-20T01:27:40;101493.75;;;13.29;66.31
13934;BME280;7039;52.168;9.866;2023-05-20T01:30:07;101482.56;;;13.24;66.06
13934;BME280;7039;52.168;9.866;2023-05-20T01:32:37;101478.94;;;13.07;66.78
13934;BME280;7039;52.168;9.866;2023-05-20T01:35:05;101480.13;;;13.00;66.88
13934;BME280;7039;52.168;9.866;2023-05-20T01:37:35;101482.75;;;13.00;67.12
13934;BME280;7039;52.168;9.866;2023-05-20T01:40:07;101483.78;;;13.16;66.64
13934;BME280;7039;52.168;9.866;2023-05-20T01:42:34;101491.25;;;13.05;66.88
13934;BME280;7039;52.168;9.866;2023-05-20T01:45:01;101474.50;;;13.09;67.04
13934;BME280;7039;52.168;9.866;2023-05-20T01:47:28;101482.50;;;13.06;67.12
13934;BME280;7039;52.168;9.866;2023-05-20T01:49:55;101479.03;;;13.06;67.05
13934;BME280;7039;52.168;9.866;2023-05-20T01:52:22;101469.81;;;12.97;67.37
13934;BME280;7039;52.168;9.866;2023-05-20T01:54:48;101472.53;;;12.94;67.48
13934;BME280;7039;52.168;9.866;2023-05-20T01:57:17;101471.25;;;12.84;67.83
13934;BME280;7039;52.168;9.866;2023-05-20T01:59:44;101466.28;;;12.78;68.13
13934;BME280;7039;52.168;9.866;2023-05-20T02:02:10;101475.50;;;12.86;67.85
13934;BME280;7039;52.168;9.866;2023-05-20T02:04:37;101472.88;;;12.86;67.92
13934;BME280;7039;52.168;9.866;2023-05-20T02:07:03;101467.66;;;12.86;68.17
13934;BME280;7039;52.168;9.866;2023-05-20T02:09:30;101471.72;;;12.73;68.41
13934;BME280;7039;52.168;9.866;2023-05-20T02:11:56;101474.66;;;12.86;68.14
13934;BME280;7039;52.168;9.866;2023-05-20T02:14:24;101468.91;;;12.78;68.40
13934;BME280;7039;52.168;9.866;2023-05-20T02:16:51;101478.19;;;12.85;67.99
13934;BME280;7039;52.168;9.866;2023-05-20T02:19:17;101473.78;;;12.85;68.27
13934;BME280;7039;52.168;9.866;2023-05-20T02:21:47;101467.31;;;12.73;68.59
13934;BME280;7039;52.168;9.866;2023-05-20T02:24:15;101478.06;;;12.88;68.23
13934;BME280;7039;52.168;9.866;2023-05-20T02:26:41;101477.19;;;12.87;68.29
13934;BME280;7039;52.168;9.866;2023-05-20T02:29:10;101476.34;;;12.87;68.23
13934;BME280;7039;52.168;9.866;2023-05-20T02:31:37;101478.84;;;12.90;68.11
13934;BME280;7039;52.168;9.866;2023-05-20T02:34:04;101475.94;;;12.96;67.83
13934;BME280;7039;52.168;9.866;2023-05-20T02:36:31;101464.28;;;13.03;67.83
13934;BME280;7039;52.168;9.866;2023-05-20T02:38:57;101471.94;;;13.08;67.49
13934;BME280;7039;52.168;9.866;2023-05-20T02:41:25;101470.97;;;13.10;67.56
13934;BME280;7039;52.168;9.866;2023-05-20T02:43:51;101467.69;;;13.05;67.79
13934;BME280;7039;52.168;9.866;2023-05-20T02:46:18;101469.41;;;13.06;67.98
13934;BME280;7039;52.168;9.866;2023-05-20T02:48:46;101474.47;;;13.30;67.62
13934;BME280;7039;52.168;9.866;2023-05-20T02:51:12;101476.69;;;13.19;67.84
13934;BME280;7039;52.168;9.866;2023-05-20T02:53:39;101471.91;;;13.28;67.66
13934;BME280;7039;52.168;9.866;2023-05-20T02:56:06;101466.47;;;13.33;67.36
13934;BME280;7039;52.168;9.866;2023-05-20T02:58:33;101469.53;;;13.43;67.36
13934;BME280;7039;52.168;9.866;2023-05-20T03:00:59;101465.19;;;13.42;67.49
13934;BME280;7039;52.168;9.866;2023-05-20T03:03:26;101472.63;;;13.51;67.03
13934;BME280;7039;52.168;9.866;2023-05-20T03:05:54;101474.81;;;13.60;66.91
13934;BME280;7039;52.168;9.866;2023-05-20T03:08:21;101477.75;;;13.54;66.96
13934;BME280;7039;52.168;9.866;2023-05-20T03:10:48;101478.38;;;13.59;66.93
13934;BME280;7039;52.168;9.866;2023-05-20T03:13:14;101475.63;;;13.62;66.92
13934;BME280;7039;52.168;9.866;2023-05-20T03:15:41;101471.72;;;13.52;67.05
13934;BME280;7039;52.168;9.866;2023-05-20T03:18:10;101471.47;;;13.58;67.15
13934;BME280;7039;52.168;9.866;2023-05-20T03:20:36;101466.50;;;13.52;67.23
13934;BME280;7039;52.168;9.866;2023-05-20T03:23:05;101470.38;;;13.62;66.94
13934;BME280;7039;52.168;9.866;2023-05-20T03:25:31;101463.72;;;13.55;67.12
13934;BME280;7039;52.168;9.866;2023-05-20T03:27:58;101462.78;;;13.37;67.60
13934;BME280;7039;52.168;9.866;2023-05-20T03:30:25;101452.31;;;13.37;67.69
13934;BME280;7039;52.168;9.866;2023-05-20T03:32:52;101456.72;;;13.36;67.62
13934;BME280;7039;52.168;9.866;2023-05-20T03:35:18;101461.69;;;13.43;68.11
13934;BME280;7039;52.168;9.866;2023-05-20T03:37:45;101462.66;;;13.59;67.66
13934;BME280;7039;52.168;9.866;2023-05-20T03:40:12;101464.06;;;13.66;67.46
13934;BME280;7039;52.168;9.866;2023-05-20T03:42:39;101462.09;;;13.52;67.52
13934;BME280;7039;52.168;9.866;2023-05-20T03:45:06;101466.06;;;13.61;67.30
13934;BME280;7039;52.168;9.866;2023-05-20T03:47:33;101465.22;;;13.61;67.34
13934;BME280;7039;52.168;9.866;2023-05-20T03:49:59;101472.50;;;13.73;67.06
13934;BME280;7039;52.168;9.866;2023-05-20T03:52:26;101463.22;;;13.66;67.64
13934;BME280;7039;52.168;9.866;2023-05-20T03:54:52;101470.72;;;13.73;66.76
13934;BME280;7039;52.168;9.866;2023-05-20T03:57:20;101472.34;;;13.76;67.05
13934;BME280;7039;52.168;9.866;2023-05-20T03:59:47;101472.22;;;13.79;66.63
13934;BME280;7039;52.168;9.866;2023-05-20T04:02:13;101472.22;;;13.79;66.91
13934;BME280;7039;52.168;9.866;2023-05-20T04:04:40;101465.81;;;13.85;66.66
13934;BME280;7039;52.168;9.866;2023-05-20T04:07:07;101468.19;;;13.72;67.37
13934;BME280;7039;52.168;9.866;2023-05-20T04:09:34;101474.75;;;13.81;66.94
13934;BME280;7039;52.168;9.866;2023-05-20T04:12:00;101471.28;;;13.80;67.00
13934;BME280;7039;52.168;9.866;2023-05-20T04:14:28;101474.25;;;13.91;66.59
13934;BME280;7039;52.168;9.866;2023-05-20T04:16:55;101462.81;;;13.56;67.47
13934;BME280;7039;52.168;9.866;2023-05-20T04:19:22;101470.38;;;13.81;67.00
13934;BME280;7039;52.168;9.866;2023-05-20T04:21:52;101469.81;;;13.74;67.16
13934;BME280;7039;52.168;9.866;2023-05-20T04:24:19;101464.97;;;13.84;66.85
13934;BME280;7039;52.168;9.866;2023-05-20T04:26:49;101456.31;;;13.82;67.08
13934;BME280;7039;52.168;9.866;2023-05-20T04:29:15;101458.16;;;13.80;67.04
13934;BME280;7039;52.168;9.866;2023-05-20T04:31:44;101452.47;;;13.89;66.79
13934;BME280;7039;52.168;9.866;2023-05-20T04:34:10;101454.41;;;13.86;66.66
13934;BME280;7039;52.168;9.866;2023-05-20T04:36:37;101462.84;;;13.92;66.23
13934;BME280;7039;52.168;9.866;2023-05-20T04:39:04;101455.66;;;13.96;66.53
13934;BME280;7039;52.168;9.866;2023-05-20T04:41:32;101453.13;;;13.75;66.96
13934;BME280;7039;52.168;9.866;2023-05-20T04:43:59;101467.69;;;14.00;66.57
13934;BME280;7039;52.168;9.866;2023-05-20T04:46:26;101471.38;;;14.15;66.21
13934;BME280;7039;52.168;9.866;2023-05-20T04:48:54;101472.31;;;14.31;65.80
13934;BME280;7039;52.168;9.866;2023-05-20T04:51:20;101464.56;;;14.28;65.51
13934;BME280;7039;52.168;9.866;2023-05-20T04:53:47;101459.78;;;14.19;65.80
13934;BME280;7039;52.168;9.866;2023-05-20T04:56:15;101460.25;;;14.27;65.35
13934;BME280;7039;52.168;9.866;2023-05-20T04:58:41;101458.84;;;14.37;65.64
13934;BME280;7039;52.168;9.866;2023-05-20T05:01:07;101456.19;;;14.22;65.92
13934;BME280;7039;52.168;9.866;2023-05-20T05:03:34;101457.88;;;14.40;65.49
13934;BME280;7039;52.168;9.866;2023-05-20T05:06:02;101456.31;;;14.36;65.97
13934;BME280;7039;52.168;9.866;2023-05-20T05:08:28;101457.56;;;14.29;65.80
13934;BME280;7039;52.168;9.866;2023-05-20T05:10:55;101460.47;;;14.23;66.16
13934;BME280;7039;52.168;9.866;2023-05-20T05:13:21;101452.38;;;14.27;66.52
13934;BME280;7039;52.168;9.866;2023-05-20T05:15:48;101446.88;;;14.14;66.49
13934;BME280;7039;52.168;9.866;2023-05-20T05:18:14;101452.06;;;14.16;66.64
13934;BME280;7039;52.168;9.866;2023-05-20T05:20:42;101450.44;;;14.13;66.51
13934;BME280;7039;52.168;9.866;2023-05-20T05:23:10;101454.06;;;14.28;66.33
13934;BME280;7039;52.168;9.866;2023-05-20T05:25:36;101454.53;;;14.19;66.44
13934;BME280;7039;52.168;9.866;2023-05-20T05:28:03;101461.09;;;14.28;66.69
13934;BME280;7039;52.168;9.866;2023-05-20T05:30:29;101453.59;;;14.37;66.48
13934;BME280;7039;52.168;9.866;2023-05-20T05:32:56;101453.63;;;14.20;67.09
13934;BME280;7039;52.168;9.866;2023-05-20T05:35:22;101451.22;;;14.33;66.43
13934;BME280;7039;52.168;9.866;2023-05-20T05:37:49;101457.47;;;14.30;66.62
13934;BME280;7039;52.168;9.866;2023-05-20T05:40:17;101454.63;;;14.35;66.50
13934;BME280;7039;52.168;9.866;2023-05-20T05:42:43;101455.25;;;14.23;67.03
13934;BME280;7039;52.168;9.866;2023-05-20T05:45:10;101459.19;;;14.31;66.88
13934;BME280;7039;52.168;9.866;2023-05-20T05:47:36;101457.88;;;14.40;66.64
13934;BME280;7039;52.168;9.866;2023-05-20T05:50:03;101456.75;;;14.63;65.95
13934;BME280;7039;52.168;9.866;2023-05-20T05:52:30;101453.09;;;14.66;65.86
13934;BME280;7039;52.168;9.866;2023-05-20T05:54:56;101454.78;;;14.67;65.85
13934;BME280;7039;52.168;9.866;2023-05-20T05:57:24;101457.81;;;14.76;66.13
13934;BME280;7039;52.168;9.866;2023-05-20T05:59:51;101448.22;;;15.09;65.84
13934;BME280;7039;52.168;9.866;2023-05-20T06:02:17;101440.72;;;15.01;65.36
13934;BME280;7039;52.168;9.866;2023-05-20T06:04:44;101440.13;;;14.96;65.21
13934;BME280;7039;52.168;9.866;2023-05-20T06:07:10;101443.06;;;15.23;65.18
13934;BME280;7039;52.168;9.866;2023-05-20T06:09:37;101436.19;;;15.20;65.20
13934;BME280;7039;52.168;9.866;2023-05-20T06:12:04;101443.13;;;15.21;65.33
13934;BME280;7039;52.168;9.866;2023-05-20T06:14:32;101432.97;;;15.15;65.66
13934;BME280;7039;52.168;9.866;2023-05-20T06:16:58;101441.97;;;15.11;65.97
13934;BME280;7039;52.168;9.866;2023-05-20T06:19:25;101445.31;;;15.31;65.27
13934;BME280;7039;52.168;9.866;2023-05-20T06:21:51;101436.97;;;15.38;65.91
13934;BME280;7039;52.168;9.866;2023-05-20T06:24:17;101439.09;;;15.32;66.49
13934;BME280;7039;52.168;9.866;2023-05-20T06:26:44;101451.16;;;15.36;66.42
13934;BME280;7039;52.168;9.866;2023-05-20T06:29:11;101438.25;;;15.31;66.18
13934;BME280;7039;52.168;9.866;2023-05-20T06:31:39;101443.00;;;15.40;65.93
13934;BME280;7039;52.168;9.866;2023-05-20T06:34:05;101449.28;;;15.70;65.58
13934;BME280;7039;52.168;9.866;2023-05-20T06:36:31;101439.94;;;15.64;65.41
13934;BME280;7039;52.168;9.866;2023-05-20T06:38:58;101441.69;;;15.81;65.59
13934;BME280;7039;52.168;9.866;2023-05-20T06:41:24;101429.09;;;15.54;65.12
13934;BME280;7039;52.168;9.866;2023-05-20T06:43:51;101434.34;;;15.70;64.78
13934;BME280;7039;52.168;9.866;2023-05-20T06:46:20;101431.22;;;15.63;64.97
13934;BME280;7039;52.168;9.866;2023-05-20T06:48:50;101437.56;;;15.91;64.34
13934;BME280;7039;52.168;9.866;2023-05-20T06:51:17;101426.78;;;15.96;64.46
13934;BME280;7039;52.168;9.866;2023-05-20T06:53:44;101434.25;;;16.03;64.15
13934;BME280;7039;52.168;9.866;2023-05-20T06:56:10;101425.69;;;16.00;64.30
13934;BME280;7039;52.168;9.866;2023-05-20T06:58:37;101422.91;;;15.87;64.67
13934;BME280;7039;52.168;9.866;2023-05-20T07:01:04;101422.31;;;15.82;64.63
13934;BME280;7039;52.168;9.866;2023-05-20T07:03:30;101425.44;;;15.89;64.59
13934;BME280;7039;52.168;9.866;2023-05-20T07:05:58;101415.25;;;15.82;65.29
13934;BME280;7039;52.168;9.866;2023-05-20T07:08:25;101416.13;;;15.83;65.51
13934;BME280;7039;52.168;9.866;2023-05-20T07:10:54;101414.69;;;15.77;65.27
13934;BME280;7039;52.168;9.866;2023-05-20T07:13:20;101409.94;;;15.84;65.27
13934;BME280;7039;52.168;9.866;2023-05-20T07:15:50;101414.50;;;15.80;65.50
13934;BME280;7039;52.168;9.866;2023-05-20T07:18:17;101419.59;;;15.83;65.38
13934;BME280;7039;52.168;9.866;2023-05-20T07:20:44;101424.09;;;15.97;64.74
13934;BME280;7039;52.168;9.866;2023-05-20T07:23:11;101424.00;;;15.99;65.46
13934;BME280;7039;52.168;9.866;2023-05-20T07:25:38;101419.19;;;15.75;65.79
13934;BME280;7039;52.168;9.866;2023-05-20T07:28:05;101417.13;;;15.80;65.51
13934;BME280;7039;52.168;9.866;2023-05-20T07:30:31;101417.63;;;15.87;65.17
13934;BME280;7039;52.168;9.866;2023-05-20T07:32:57;101415.63;;;15.76;65.37
13934;BME280;7039;52.168;9.866;2023-05-20T07:35:24;101408.50;;;15.78;65.54
13934;BME280;7039;52.168;9.866;2023-05-20T07:37:50;101420.09;;;15.90;66.02
13934;BME280;7039;52.168;9.866;2023-05-20T07:40:18;101422.28;;;15.98;65.67
13934;BME280;7039;52.168;9.866;2023-05-20T07:42:45;101420.78;;;16.24;64.96
13934;BME280;7039;52.168;9.866;2023-05-20T07:45:12;101413.19;;;16.34;64.42
13934;BME280;7039;52.168;9.866;2023-05-20T07:47:38;101405.97;;;16.52;64.33
13934;BME280;7039;52.168;9.866;2023-05-20T07:50:06;101418.44;;;16.93;63.08
13934;BME280;7039;52.168;9.866;2023-05-20T07:52:32;101408.94;;;17.04;62.86
13934;BME280;7039;52.168;9.866;2023-05-20T07:54:59;101408.69;;;17.36;61.70
13934;BME280;7039;52.168;9.866;2023-05-20T07:57:26;101399.66;;;17.40;61.56
13934;BME280;7039;52.168;9.866;2023-05-20T07:59:53;101404.41;;;17.62;61.58
13934;BME280;7039;52.168;9.866;2023-05-20T08:02:19;101392.81;;;17.78;61.05
13934;BME280;7039;52.168;9.866;2023-05-20T08:04:46;101398.09;;;18.05;60.75
13934;BME280;7039;52.168;9.866;2023-05-20T08:07:12;101401.09;;;18.13;59.84
13934;BME280;7039;52.168;9.866;2023-05-20T08:09:39;101402.31;;;18.07;59.91
13934;BME280;7039;52.168;9.866;2023-05-20T08:12:06;101393.66;;;18.05;60.17
13934;BME280;7039;52.168;9.866;2023-05-20T08:14:34;101404.19;;;18.58;59.19
13934;BME280;7039;52.168;9.866;2023-05-20T08:17:00;101396.47;;;18.29;59.79
13934;BME280;7039;52.168;9.866;2023-05-20T08:19:26;101401.31;;;18.48;59.19
13934;BME280;7039;52.168;9.866;2023-05-20T08:21:53;101390.03;;;18.33;59.67
13934;BME280;7039;52.168;9.866;2023-05-20T08:24:19;101395.41;;;18.32;59.79
13934;BME280;7039;52.168;9.866;2023-05-20T08:26:50;101403.03;;;18.62;59.13
13934;BME280;7039;52.168;9.866;2023-05-20T08:29:17;101392.47;;;18.88;59.04
13934;BME280;7039;52.168;9.866;2023-05-20T08:31:45;101397.94;;;18.97;58.57
13934;BME280;7039;52.168;9.866;2023-05-20T08:34:11;101390.66;;;19.01;58.28
13934;BME280;7039;52.168;9.866;2023-05-20T08:36:38;101380.94;;;18.89;58.40
13934;BME280;7039;52.168;9.866;2023-05-20T08:39:05;101385.59;;;18.85;58.26
13934;BME280;7039;52.168;9.866;2023-05-20T08:41:31;101382.09;;;18.97;58.57
13934;BME280;7039;52.168;9.866;2023-05-20T08:43:59;101380.00;;;18.90;59.55
13934;BME280;7039;52.168;9.866;2023-05-20T08:46:26;101390.69;;;19.25;58.50
13934;BME280;7039;52.168;9.866;2023-05-20T08:48:54;101382.53;;;19.52;57.24
13934;BME280;7039;52.168;9.866;2023-05-20T08:51:21;101388.00;;;19.62;56.97
13934;BME280;7039;52.168;9.866;2023-05-20T08:53:50;101384.56;;;19.25;57.89
13934;BME280;7039;52.168;9.866;2023-05-20T08:56:17;101381.00;;;19.13;57.89
13934;BME280;7039;52.168;9.866;2023-05-20T08:58:44;101374.88;;;19.36;57.42
13934;BME280;7039;52.168;9.866;2023-05-20T09:01:11;101367.78;;;19.37;57.63
13934;BME280;7039;52.168;9.866;2023-05-20T09:03:38;101371.22;;;19.50;57.42
13934;BME280;7039;52.168;9.866;2023-05-20T09:06:07;101370.63;;;19.10;57.83
13934;BME280;7039;52.168;9.866;2023-05-20T09:08:34;101370.50;;;19.24;58.17
13934;BME280;7039;52.168;9.866;2023-05-20T09:11:01;101372.16;;;19.01;58.75
13934;BME280;7039;52.168;9.866;2023-05-20T09:13:29;101374.38;;;18.94;58.69
13934;BME280;7039;52.168;9.866;2023-05-20T09:15:58;101384.38;;;19.15;58.80
13934;BME280;7039;52.168;9.866;2023-05-20T09:18:25;101376.06;;;18.95;58.52
13934;BME280;7039;52.168;9.866;2023-05-20T09:20:51;101376.16;;;18.68;59.31
13934;BME280;7039;52.168;9.866;2023-05-20T09:23:19;101376.38;;;18.78;60.00
13934;BME280;7039;52.168;9.866;2023-05-20T09:25:48;101370.28;;;18.77;59.22
13934;BME280;7039;52.168;9.866;2023-05-20T09:28:16;101363.81;;;18.82;58.40
13934;BME280;7039;52.168;9.866;2023-05-20T09:30:44;101367.69;;;19.02;58.13
13934;BME280;7039;52.168;9.866;2023-05-20T09:33:11;101371.91;;;19.17;57.32
13934;BME280;7039;52.168;9.866;2023-05-20T09:35:38;101369.28;;;19.04;58.15
13934;BME280;7039;52.168;9.866;2023-05-20T09:38:05;101363.28;;;18.76;58.82
13934;BME280;7039;52.168;9.866;2023-05-20T09:40:34;101367.28;;;19.08;58.15
13934;BME280;7039;52.168;9.866;2023-05-20T09:43:02;101372.84;;;19.64;56.58
13934;BME280;7039;52.168;9.866;2023-05-20T09:45:29;101375.34;;;20.14;55.67
13934;BME280;7039;52.168;9.866;2023-05-20T09:47:56;101365.03;;;20.33;55.29
13934;BME280;7039;52.168;9.866;2023-05-20T09:50:23;101362.53;;;20.54;54.55
13934;BME280;7039;52.168;9.866;2023-05-20T09:52:52;101366.63;;;20.47;54.13
13934;BME280;7039;52.168;9.866;2023-05-20T09:55:22;101374.72;;;20.68;54.08
13934;BME280;7039;52.168;9.866;2023-05-20T09:57:50;101370.50;;;21.11;53.33
13934;BME280;7039;52.168;9.866;2023-05-20T10:00:17;101367.03;;;20.65;54.01
13934;BME280;7039;52.168;9.866;2023-05-20T10:02:48;101359.59;;;20.12;54.79
13934;BME280;7039;52.168;9.866;2023-05-20T10:05:18;101358.03;;;20.21;55.29
13934;BME280;7039;52.168;9.866;2023-05-20T10:08:09;101347.41;;;20.10;54.81
13934;BME280;7039;52.168;9.866;2023-05-20T10:10:49;101344.06;;;20.30;55.15
13934;BME280;7039;52.168;9.866;2023-05-20T10:13:29;101345.78;;;19.85;55.72
13934;BME280;7039;52.168;9.866;2023-05-20T10:16:08;101349.22;;;20.20;55.32
13934;BME280;7039;52.168;9.866;2023-05-20T10:18:46;101352.22;;;20.74;54.25
13934;BME280;7039;52.168;9.866;2023-05-20T10:21:16;101345.16;;;20.39;54.66
13934;BME280;7039;52.168;9.866;2023-05-20T10:23:43;101346.59;;;20.32;54.88
13934;BME280;7039;52.168;9.866;2023-05-20T10:26:10;101335.00;;;19.99;55.09
13934;BME280;7039;52.168;9.866;2023-05-20T10:28:39;101345.66;;;20.21;55.21
13934;BME280;7039;52.168;9.866;2023-05-20T10:31:14;101351.69;;;20.91;54.62
13934;BME280;7039;52.168;9.866;2023-05-20T10:33:42;101351.16;;;21.31;54.23
13934;BME280;7039;52.168;9.866;2023-05-20T10:36:09;101339.53;;;21.43;52.98
13934;BME280;7039;52.168;9.866;2023-05-20T10:38:51;101344.22;;;21.83;51.96
13934;BME280;7039;52.168;9.866;2023-05-20T10:41:19;101344.47;;;22.01;51.31
13934;BME280;7039;52.168;9.866;2023-05-20T10:43:58;101341.38;;;21.96;51.11
13934;BME280;7039;52.168;9.866;2023-05-20T10:46:24;101335.44;;;21.39;51.23
13934;BME280;7039;52.168;9.866;2023-05-20T10:48:51;101335.03;;;21.12;51.95
13934;BME280;7039;52.168;9.866;2023-05-20T10:51:18;101344.44;;;21.04;52.83
13934;BME280;7039;52.168;9.866;2023-05-20T10:53:46;101333.25;;;21.01;53.49
13934;BME280;7039;52.168;9.866;2023-05-20T10:56:15;101327.00;;;20.91;53.21
13934;BME280;7039;52.168;9.866;2023-05-20T10:58:43;101312.06;;;20.33;53.94
13934;BME280;7039;52.168;9.866;2023-05-20T11:01:11;101311.34;;;20.54;54.35
13934;BME280;7039;52.168;9.866;2023-05-20T11:03:39;101311.38;;;20.65;54.22
13934;BME280;7039;52.168;9.866;2023-05-20T11:06:12;101313.28;;;20.74;53.88
13934;BME280;7039;52.168;9.866;2023-05-20T11:08:40;101310.16;;;20.80;53.96
13934;BME280;7039;52.168;9.866;2023-05-20T11:11:07;101294.22;;;20.13;54.81
13934;BME280;7039;52.168;9.866;2023-05-20T11:13:34;101296.59;;;20.05;54.72
13934;BME280;7039;52.168;9.866;2023-05-20T11:16:01;101304.34;;;19.72;55.86
13934;BME280;7039;52.168;9.866;2023-05-20T11:18:30;101298.47;;;19.80;55.90
13934;BME280;7039;52.168;9.866;2023-05-20T11:20:56;101300.16;;;19.81;56.34
13934;BME280;7039;52.168;9.866;2023-05-20T11:23:24;101295.81;;;19.80;56.69
13934;BME280;7039;52.168;9.866;2023-05-20T11:25:52;101289.34;;;19.84;56.44
13934;BME280;7039;52.168;9.866;2023-05-20T11:28:19;101287.16;;;19.78;56.95
13934;BME280;7039;52.168;9.866;2023-05-20T11:30:46;101287.69;;;19.94;56.52
13934;BME280;7039;52.168;9.866;2023-05-20T11:33:13;101283.19;;;19.84;56.76
13934;BME280;7039;52.168;9.866;2023-05-20T11:35:45;101277.56;;;19.64;57.77
13934;BME280;7039;52.168;9.866;2023-05-20T11:38:12;101272.75;;;20.05;56.41
13934;BME280;7039;52.168;9.866;2023-05-20T11:40:42;101272.06;;;20.48;56.07
13934;BME280;7039;52.168;9.866;2023-05-20T11:43:10;101269.00;;;20.97;54.89
13934;BME280;7039;52.168;9.866;2023-05-20T11:45:38;101269.25;;;20.94;55.01
13934;BME280;7039;52.168;9.866;2023-05-20T11:48:05;101258.53;;;20.84;55.15
13934;BME280;7039;52.168;9.866;2023-05-20T11:50:33;101262.59;;;21.00;54.70
13934;BME280;7039;52.168;9.866;2023-05-20T11:53:02;101275.81;;;21.11;54.28
13934;BME280;7039;52.168;9.866;2023-05-20T11:55:30;101260.50;;;20.82;54.28
13934;BME280;7039;52.168;9.866;2023-05-20T11:57:57;101258.59;;;20.28;55.88
13934;BME280;7039;52.168;9.866;2023-05-20T12:00:24;101255.94;;;20.39;55.12
13934;BME280;7039;52.168;9.866;2023-05-20T12:02:50;101260.72;;;20.45;54.96
13934;BME280;7039;52.168;9.866;2023-05-20T12:05:17;101271.22;;;20.70;54.41
13934;BME280;7039;52.168;9.866;2023-05-20T12:07:44;101260.00;;;20.21;55.47
13934;BME280;7039;52.168;9.866;2023-05-20T12:10:12;101263.28;;;20.24;55.67
13934;BME280;7039;52.168;9.866;2023-05-20T12:12:39;101254.38;;;20.03;56.07
13934;BME280;7039;52.168;9.866;2023-05-20T12:15:06;101255.19;;;20.03;56.55
13934;BME280;7039;52.168;9.866;2023-05-20T12:17:44;101254.47;;;20.01;56.44
13934;BME280;7039;52.168;9.866;2023-05-20T12:20:12;101256.66;;;20.08;56.71
13934;BME280;7039;52.168;9.866;2023-05-20T12:22:39;101255.31;;;20.13;56.28
13934;BME280;7039;52.168;9.866;2023-05-20T12:25:06;101257.72;;;20.39;56.15
13934;BME280;7039;52.168;9.866;2023-05-20T12:27:34;101238.72;;;19.53;57.34
13934;BME280;7039;52.168;9.866;2023-05-20T12:30:00;101241.31;;;19.77;57.65
13934;BME280;7039;52.168;9.866;2023-05-20T12:32:27;101237.56;;;19.80;57.59
13934;BME280;7039;52.168;9.866;2023-05-20T12:34:53;101240.63;;;20.20;56.79
13934;BME280;7039;52.168;9.866;2023-05-20T12:37:20;101216.19;;;20.17;56.84
13934;BME280;7039;52.168;9.866;2023-05-20T12:39:46;101236.75;;;20.81;55.83
13934;BME280;7039;52.168;9.866;2023-05-20T12:42:13;101232.84;;;20.96;55.54
13934;BME280;7039;52.168;9.866;2023-05-20T12:44:41;101230.84;;;20.77;54.44
13934;BME280;7039;52.168;9.866;2023-05-20T12:47:07;101231.22;;;21.05;55.00
13934;BME280;7039;52.168;9.866;2023-05-20T12:49:34;101231.34;;;21.15;54.45
13934;BME280;7039;52.168;9.866;2023-05-20T12:52:00;101220.66;;;21.26;54.15
13934;BME280;7039;52.168;9.866;2023-05-20T12:54:27;101226.00;;;21.47;54.26
13934;BME280;7039;52.168;9.866;2023-05-20T12:56:54;101218.38;;;21.54;53.37
13934;BME280;7039;52.168;9.866;2023-05-20T12:59:20;101223.63;;;21.44;53.77
13934;BME280;7039;52.168;9.866;2023-05-20T13:01:48;101224.28;;;20.93;54.38